Time;durP1;ratioP1;P1;durP2;ratioP2;P2;SDS_P1;SDS_P2;PMS_P1;PMS_P2;Temp;Humidity;BMP_temperature;BMP_pressure;BME280_temperature;BME280_humidity;BME280_pressure;Samples;Min_cycle;Max_cycle;Signal;HPM_P1;HPM_P2
2022/01/12 00:00:56;;;;;;;15.97;9.73;;;3.70;99.90;;;;;;5070686;28;20426;-88
2022/01/12 00:03:21;;;;;;;18.27;9.80;;;3.80;99.90;;;;;;5071447;28;20564;-92
2022/01/12 00:05:47;;;;;;;18.00;10.03;;;3.80;99.90;;;;;;5072198;28;20969;-93
2022/01/12 00:08:13;;;;;;;16.67;9.60;;;3.80;99.90;;;;;;5073319;28;20177;-88
2022/01/12 00:10:39;;;;;;;17.50;10.43;;;3.80;99.90;;;;;;5105501;28;20495;-92
2022/01/12 00:13:05;;;;;;;22.90;11.23;;;3.80;99.90;;;;;;5071869;28;20173;-88
2022/01/12 00:15:31;;;;;;;21.10;9.00;;;3.80;99.90;;;;;;5071698;28;20403;-87
2022/01/12 00:17:56;;;;;;;19.20;9.73;;;3.80;99.90;;;;;;5071313;28;20427;-89
2022/01/12 00:20:22;;;;;;;13.40;7.77;;;3.80;99.90;;;;;;5073094;28;20163;-88
2022/01/12 00:22:47;;;;;;;17.73;10.80;;;3.80;99.90;;;;;;5071499;28;20220;-87
2022/01/12 00:33:13;;;;;;;18.50;10.50;;;3.80;99.90;;;;;;5072003;28;20410;-89
2022/01/12 00:35:43;;;;;;;19.80;9.97;;;3.80;99.90;;;;;;5071817;28;20411;-87
2022/01/12 00:38:09;;;;;;;16.83;9.37;;;3.80;99.90;;;;;;5072125;28;20916;-88
2022/01/12 00:40:40;;;;;;;15.37;9.70;;;3.80;99.90;;;;;;5075330;28;20430;-88
2022/01/12 00:43:06;;;;;;;16.20;8.70;;;3.80;99.90;;;;;;5073565;28;20526;-88
2022/01/12 00:45:32;;;;;;;18.27;9.90;;;3.80;99.90;;;;;;5075729;28;20498;-93
2022/01/12 00:47:58;;;;;;;16.57;9.27;;;3.80;99.90;;;;;;5075577;28;20581;-92
2022/01/12 00:50:23;;;;;;;20.93;10.23;;;3.90;99.90;;;;;;5074251;28;20500;-89
2022/01/12 00:52:50;;;;;;;17.00;9.37;;;3.90;99.90;;;;;;5074622;28;20176;-90
2022/01/12 00:55:16;;;;;;;18.23;9.67;;;3.90;99.90;;;;;;5078516;28;20187;-87
2022/01/12 00:57:42;;;;;;;17.17;9.80;;;3.80;99.90;;;;;;5079480;28;20408;-86
2022/01/12 01:00:09;;;;;;;19.70;11.20;;;3.90;99.90;;;;;;5075161;28;20414;-87
2022/01/12 01:02:34;;;;;;;16.90;8.20;;;3.90;99.90;;;;;;5074586;28;20459;-86
2022/01/12 01:05:01;;;;;;;19.97;9.20;;;3.90;99.90;;;;;;5075061;28;20760;-84
2022/01/12 01:07:26;;;;;;;16.37;10.20;;;3.90;99.90;;;;;;5074979;28;20621;-84
2022/01/12 01:10:04;;;;;;;17.20;9.07;;;3.80;99.90;;;;;;5075169;28;20507;-85
2022/01/12 01:12:30;;;;;;;17.53;8.93;;;3.80;99.90;;;;;;5074302;28;20165;-84
2022/01/12 01:15:13;;;;;;;16.60;8.60;;;3.80;99.90;;;;;;5075034;28;20439;-84
2022/01/12 01:25:48;;;;;;;14.47;8.90;;;3.70;99.90;;;;;;5074529;28;20407;-90
2022/01/12 01:28:15;;;;;;;17.70;9.07;;;3.70;99.90;;;;;;5074025;28;20411;-89
2022/01/12 01:30:43;;;;;;;22.07;9.60;;;3.70;99.90;;;;;;5074676;28;20222;-85
2022/01/12 01:33:10;;;;;;;13.50;8.73;;;3.70;99.90;;;;;;5074533;28;20411;-94
2022/01/12 01:35:43;;;;;;;16.90;10.90;;;3.70;99.90;;;;;;5083418;28;20422;-93
2022/01/12 01:38:08;;;;;;;17.63;11.23;;;3.80;99.90;;;;;;5088535;28;20447;-90
2022/01/12 01:40:36;;;;;;;18.03;11.20;;;3.80;99.90;;;;;;5082089;28;20439;-86
2022/01/12 01:53:48;;;;;;;18.80;12.63;;;3.70;99.90;;;;;;5083527;28;20422;-84
2022/01/12 01:56:34;;;;;;;14.33;10.07;;;3.70;99.90;;;;;;5080100;28;20478;-92
2022/01/12 01:58:59;;;;;;;14.03;9.73;;;3.60;99.90;;;;;;5076053;28;20408;-91
2022/01/12 02:01:25;;;;;;;15.47;10.90;;;3.70;99.90;;;;;;5077923;28;20169;-94
2022/01/12 02:03:53;;;;;;;18.10;10.50;;;3.60;99.90;;;;;;5076384;28;20604;-91
2022/01/12 02:06:19;;;;;;;17.47;11.80;;;3.60;99.90;;;;;;5074483;28;20414;-91
2022/01/12 02:08:45;;;;;;;20.27;13.00;;;3.60;99.90;;;;;;5074173;28;20780;-86
2022/01/12 02:11:10;;;;;;;17.57;10.60;;;3.60;99.90;;;;;;5072985;28;20172;-91
2022/01/12 02:13:37;;;;;;;17.00;12.00;;;3.60;99.90;;;;;;5072525;28;20425;-92
2022/01/12 02:35:47;;;;;;;21.10;12.57;;;3.60;99.90;;;;;;5053790;28;20839;-80
2022/01/12 02:40:57;;;;;;;19.70;12.17;;;3.60;99.90;;;;;;5053833;28;20419;-80
2022/01/12 02:51:34;;;;;;;19.83;13.30;;;3.60;99.90;;;;;;5053393;28;20411;-80
2022/01/12 02:54:00;;;;;;;25.63;15.00;;;3.60;99.90;;;;;;5053390;28;20407;-80
2022/01/12 02:56:32;;;;;;;21.37;15.20;;;3.60;99.90;;;;;;5053276;28;20416;-79
2022/01/12 02:58:59;;;;;;;21.00;14.30;;;3.60;99.90;;;;;;5052948;28;20415;-79
2022/01/12 03:01:49;;;;;;;25.43;15.40;;;3.50;99.90;;;;;;5034897;28;20428;-79
2022/01/12 03:04:12;;;;;;;22.10;13.37;;;3.50;99.90;;;;;;5052792;28;20473;-79
2022/01/12 03:06:42;;;;;;;23.63;16.20;;;3.50;99.90;;;;;;5053031;28;20412;-79
2022/01/12 03:09:10;;;;;;;22.17;16.80;;;3.50;99.90;;;;;;5053176;28;20436;-80
2022/01/12 03:11:37;;;;;;;26.43;16.33;;;3.50;99.90;;;;;;5053067;28;20452;-79
2022/01/12 03:14:03;;;;;;;24.53;15.50;;;3.50;99.90;;;;;;5052523;28;20428;-79
2022/01/12 03:16:29;;;;;;;29.03;17.80;;;3.50;99.90;;;;;;5052712;28;20511;-79
2022/01/12 03:18:58;;;;;;;28.30;16.10;;;3.50;99.90;;;;;;5052945;28;20455;-80
2022/01/12 03:21:27;;;;;;;31.10;18.63;;;3.50;99.90;;;;;;5052979;28;20177;-79
2022/01/12 03:23:53;;;;;;;25.40;17.20;;;3.60;99.90;;;;;;5052897;28;20463;-79
2022/01/12 03:26:20;;;;;;;29.70;18.30;;;3.60;99.90;;;;;;5052782;28;20488;-79
2022/01/12 03:28:53;;;;;;;28.80;17.07;;;3.50;99.90;;;;;;5034587;28;20432;-80
2022/01/12 03:31:22;;;;;;;38.47;19.30;;;3.60;99.90;;;;;;5031194;28;20469;-80
2022/01/12 03:33:54;;;;;;;30.80;19.57;;;3.60;99.90;;;;;;5032789;28;20402;-79
2022/01/12 03:38:59;;;;;;;31.03;19.00;;;3.50;99.90;;;;;;5052591;28;20512;-80
2022/01/12 03:41:27;;;;;;;33.57;18.10;;;3.50;99.90;;;;;;5052584;28;20458;-79
2022/01/12 03:43:54;;;;;;;38.23;20.60;;;3.50;99.90;;;;;;5051975;28;20472;-79
2022/01/12 03:46:25;;;;;;;32.80;20.13;;;3.50;99.90;;;;;;5052510;28;20409;-80
2022/01/12 03:48:50;;;;;;;22.17;18.07;;;3.50;99.90;;;;;;5052544;28;20424;-80
2022/01/12 03:51:16;;;;;;;38.70;18.57;;;3.60;99.90;;;;;;5052610;28;20769;-78
2022/01/12 03:53:42;;;;;;;35.23;19.93;;;3.50;99.90;;;;;;5052714;28;20200;-79
2022/01/12 03:56:07;;;;;;;32.23;20.97;;;3.50;99.90;;;;;;5052512;28;20166;-79
2022/01/12 03:58:33;;;;;;;31.30;18.43;;;3.50;99.90;;;;;;5052432;28;20222;-79
2022/01/12 04:00:59;;;;;;;32.50;19.97;;;3.50;99.90;;;;;;5052088;28;20162;-79
2022/01/12 04:03:26;;;;;;;31.43;19.83;;;3.50;99.90;;;;;;5034503;28;20209;-78
2022/01/12 04:08:21;;;;;;;31.10;19.40;;;3.50;99.90;;;;;;5052451;28;20420;-80
2022/01/12 04:10:51;;;;;;;31.23;19.70;;;3.40;99.90;;;;;;5034801;28;20404;-79
2022/01/12 04:13:18;;;;;;;37.73;21.47;;;3.50;99.90;;;;;;5053019;28;20412;-79
2022/01/12 04:15:49;;;;;;;31.10;20.60;;;3.50;99.90;;;;;;5056070;28;20412;-79
2022/01/12 04:18:15;;;;;;;36.03;22.77;;;3.50;99.90;;;;;;5056263;28;20507;-78
2022/01/12 04:20:49;;;;;;;33.20;21.00;;;3.50;99.90;;;;;;5035078;28;20562;-79
2022/01/12 04:23:19;;;;;;;38.70;20.60;;;3.50;99.90;;;;;;5039400;28;20208;-80
2022/01/12 04:25:59;;;;;;;37.57;19.90;;;3.50;99.90;;;;;;5034438;28;20416;-79
2022/01/12 04:28:29;;;;;;;32.80;19.17;;;3.50;99.90;;;;;;5035449;28;20515;-79
2022/01/12 04:30:56;;;;;;;41.27;21.60;;;3.40;99.90;;;;;;5034845;28;20456;-79
2022/01/12 04:33:22;;;;;;;37.33;21.47;;;3.40;99.90;;;;;;5034982;28;21093;-80
2022/01/12 04:35:53;;;;;;;41.13;22.97;;;3.50;99.90;;;;;;5035406;28;20416;-80
2022/01/12 04:38:24;;;;;;;36.03;20.10;;;3.40;99.90;;;;;;5034344;28;20445;-80
2022/01/12 04:40:51;;;;;;;37.57;22.00;;;3.50;99.90;;;;;;5035955;28;20752;-81
2022/01/12 04:43:18;;;;;;;40.30;20.70;;;3.50;99.90;;;;;;5035828;28;20977;-79
2022/01/12 04:50:44;;;;;;;35.67;21.33;;;3.50;99.90;;;;;;5035840;28;20517;-81
2022/01/12 04:53:11;;;;;;;38.20;23.20;;;3.40;99.90;;;;;;5035755;28;20970;-80
2022/01/12 04:55:40;;;;;;;42.67;22.80;;;3.50;99.90;;;;;;5035612;28;20428;-80
2022/01/12 04:58:06;;;;;;;41.90;22.07;;;3.40;99.90;;;;;;5035538;28;20425;-80
2022/01/12 05:00:33;;;;;;;39.20;22.97;;;3.50;99.90;;;;;;5035124;28;20436;-80
2022/01/12 05:13:47;;;;;;;35.77;20.60;;;3.50;99.90;;;;;;5035283;28;20460;-80
2022/01/12 05:16:13;;;;;;;38.60;22.57;;;3.60;99.90;;;;;;5017558;28;20413;-81
2022/01/12 05:18:40;;;;;;;49.40;23.20;;;3.50;99.90;;;;;;5017547;28;20448;-80
2022/01/12 05:21:07;;;;;;;39.83;24.20;;;3.50;99.90;;;;;;5017297;28;20413;-80
2022/01/12 05:23:33;;;;;;;33.27;21.00;;;3.50;99.90;;;;;;5035131;28;20831;-84
2022/01/12 05:25:59;;;;;;;33.83;21.07;;;3.50;99.90;;;;;;5034743;28;20404;-81
2022/01/12 05:28:26;;;;;;;36.80;20.77;;;3.50;99.90;;;;;;5034785;28;20421;-81
2022/01/12 05:30:53;;;;;;;31.60;18.63;;;3.50;99.90;;;;;;5034977;28;20456;-84
2022/01/12 05:33:19;;;;;;;33.33;19.80;;;3.50;99.90;;;;;;5034999;28;20829;-81
2022/01/12 05:35:45;;;;;;;31.50;20.13;;;3.50;99.90;;;;;;5035001;28;20421;-82
2022/01/12 05:38:13;;;;;;;34.83;18.70;;;3.50;99.90;;;;;;5034989;28;20849;-82
2022/01/12 05:40:41;;;;;;;29.43;18.70;;;3.50;99.90;;;;;;5034855;28;20405;-82
2022/01/12 05:43:07;;;;;;;43.43;22.00;;;3.50;99.90;;;;;;5016997;28;20511;-83
2022/01/12 05:45:34;;;;;;;31.60;19.50;;;3.50;99.90;;;;;;5034422;28;20432;-82
2022/01/12 05:50:28;;;;;;;38.50;21.40;;;3.60;99.90;;;;;;5034806;28;20425;-81
2022/01/12 05:52:54;;;;;;;37.97;19.73;;;3.60;99.90;;;;;;5034631;28;20445;-81
2022/01/12 05:55:23;;;;;;;37.57;22.03;;;3.60;99.90;;;;;;5016831;28;20468;-82
2022/01/12 05:57:48;;;;;;;29.97;18.63;;;3.60;99.90;;;;;;5034590;28;20425;-83
2022/01/12 06:00:16;;;;;;;29.93;17.00;;;3.60;99.90;;;;;;5034217;28;20430;-82
2022/01/12 06:02:42;;;;;;;32.07;17.93;;;3.60;99.90;;;;;;5034234;28;20603;-80
2022/01/12 06:05:08;;;;;;;30.80;18.97;;;3.70;99.90;;;;;;5034279;28;20482;-81
2022/01/12 06:07:34;;;;;;;35.33;19.63;;;3.60;99.90;;;;;;5034321;28;20657;-82
2022/01/12 06:09:59;;;;;;;27.30;17.00;;;3.60;99.90;;;;;;5033956;28;20436;-82
2022/01/12 06:12:25;;;;;;;30.60;20.60;;;3.60;99.90;;;;;;5034313;28;20416;-80
2022/01/12 06:14:51;;;;;;;32.50;19.13;;;3.60;99.90;;;;;;5033902;28;20173;-83
2022/01/12 06:17:17;;;;;;;34.20;20.40;;;3.70;99.90;;;;;;5034220;28;20170;-81
2022/01/12 06:19:42;;;;;;;34.13;18.63;;;3.70;99.90;;;;;;5033933;28;20459;-80
2022/01/12 06:22:08;;;;;;;28.30;17.93;;;3.70;99.90;;;;;;5033862;28;20174;-82
2022/01/12 06:24:34;;;;;;;34.13;18.90;;;3.70;99.90;;;;;;5033740;28;20178;-80
2022/01/12 06:27:00;;;;;;;30.60;18.00;;;3.70;99.90;;;;;;5033879;28;20649;-85
2022/01/12 06:32:12;;;;;;;26.17;15.57;;;3.70;99.90;;;;;;5002992;28;20421;-84
2022/01/12 06:34:38;;;;;;;36.17;18.60;;;3.70;99.90;;;;;;5033718;28;20809;-80
2022/01/12 06:37:04;;;;;;;26.00;16.43;;;3.70;99.90;;;;;;5033035;28;20183;-82
2022/01/12 06:39:29;;;;;;;32.70;18.00;;;3.70;99.90;;;;;;5036425;28;20187;-81
2022/01/12 06:41:58;;;;;;;25.80;16.73;;;3.70;99.90;;;;;;5045894;28;20745;-81
2022/01/12 06:44:25;;;;;;;25.63;18.00;;;3.70;99.90;;;;;;5039702;28;20217;-82
2022/01/12 06:46:52;;;;;;;26.90;17.07;;;3.80;99.90;;;;;;5034646;28;20417;-81
2022/01/12 06:49:18;;;;;;;38.47;20.93;;;3.80;99.90;;;;;;5038554;28;20421;-81
2022/01/12 06:51:45;;;;;;;34.90;16.83;;;3.80;99.90;;;;;;5034010;28;20415;-82
2022/01/12 06:54:12;;;;;;;35.33;18.73;;;3.80;99.90;;;;;;5015798;28;20433;-82
2022/01/12 06:56:38;;;;;;;38.83;19.03;;;3.80;99.90;;;;;;5033240;28;20419;-86
2022/01/12 06:59:05;;;;;;;39.87;20.37;;;3.80;99.90;;;;;;5015475;28;20428;-81
2022/01/12 07:01:31;;;;;;;42.40;20.37;;;3.80;99.90;;;;;;5033971;28;20412;-79
2022/01/12 07:03:57;;;;;;;42.63;19.50;;;3.90;99.90;;;;;;5033969;28;20476;-81
2022/01/12 07:06:22;;;;;;;36.93;18.57;;;3.80;99.90;;;;;;5033503;28;20171;-85
2022/01/12 07:08:48;;;;;;;35.27;19.43;;;3.80;99.90;;;;;;5033320;28;20421;-80
2022/01/12 07:11:14;;;;;;;46.03;18.97;;;3.80;99.90;;;;;;5015626;28;20273;-86
2022/01/12 07:13:39;;;;;;;41.20;18.10;;;3.80;99.90;;;;;;5032705;28;20193;-82
2022/01/12 07:16:07;;;;;;;34.93;18.20;;;3.80;99.90;;;;;;5033138;28;20626;-81
2022/01/12 07:18:33;;;;;;;40.77;19.10;;;3.90;99.90;;;;;;5033222;28;20228;-85
2022/01/12 07:20:59;;;;;;;40.33;20.50;;;3.80;99.90;;;;;;5035643;28;20444;-87
2022/01/12 07:23:26;;;;;;;43.50;20.93;;;3.80;99.90;;;;;;5036378;28;20300;-87
2022/01/12 07:25:52;;;;;;;42.80;19.70;;;3.80;99.90;;;;;;5033143;28;20499;-80
2022/01/12 07:28:18;;;;;;;35.03;19.20;;;3.80;99.90;;;;;;5014968;28;20944;-80
2022/01/12 07:30:44;;;;;;;40.47;19.47;;;3.80;99.90;;;;;;5021010;28;20562;-85
2022/01/12 07:33:09;;;;;;;43.63;17.50;;;3.90;99.90;;;;;;5014843;28;20421;-85
2022/01/12 07:35:35;;;;;;;46.87;20.27;;;3.80;99.90;;;;;;5033015;28;20165;-80
2022/01/12 07:38:03;;;;;;;34.17;18.67;;;3.80;99.90;;;;;;5032863;28;20413;-81
2022/01/12 07:40:29;;;;;;;35.30;17.27;;;3.90;99.90;;;;;;5032563;28;20170;-80
2022/01/12 07:42:58;;;;;;;38.90;17.93;;;3.90;99.90;;;;;;5032797;28;20464;-80
2022/01/12 07:45:23;;;;;;;45.27;17.30;;;3.90;99.90;;;;;;5039222;28;20419;-79
2022/01/12 07:47:49;;;;;;;44.73;20.60;;;3.90;99.90;;;;;;5034536;28;20428;-84
2022/01/12 07:50:14;;;;;;;36.50;19.10;;;3.90;99.90;;;;;;5037322;28;20178;-82
2022/01/12 07:52:40;;;;;;;43.00;20.43;;;3.90;99.90;;;;;;5036734;28;20205;-79
2022/01/12 07:55:07;;;;;;;40.17;17.33;;;4.00;99.90;;;;;;5037015;28;20257;-80
2022/01/12 07:57:32;;;;;;;32.33;17.70;;;4.00;99.90;;;;;;5036936;28;20175;-82
2022/01/12 07:59:58;;;;;;;34.27;17.93;;;4.00;99.90;;;;;;5036343;28;20416;-80
2022/01/12 08:02:24;;;;;;;39.07;17.33;;;4.00;99.90;;;;;;5037046;28;20178;-86
2022/01/12 08:04:50;;;;;;;38.47;19.17;;;4.00;99.90;;;;;;5036686;28;20182;-85
2022/01/12 08:07:15;;;;;;;39.20;18.93;;;4.10;99.90;;;;;;5036619;28;20777;-83
2022/01/12 08:09:43;;;;;;;37.57;17.80;;;4.10;99.90;;;;;;5036528;28;20456;-82
2022/01/12 08:12:09;;;;;;;29.13;16.60;;;4.10;99.90;;;;;;5036532;28;20166;-80
2022/01/12 08:14:35;;;;;;;35.20;17.43;;;4.10;99.90;;;;;;5035980;28;20423;-83
2022/01/12 08:17:01;;;;;;;37.50;16.67;;;4.10;99.90;;;;;;5018694;28;20511;-81
2022/01/12 08:19:28;;;;;;;45.93;20.80;;;4.10;99.90;;;;;;5036569;28;20202;-82
2022/01/12 08:21:54;;;;;;;45.13;18.37;;;4.20;99.90;;;;;;5036576;28;20808;-84
2022/01/12 08:24:20;;;;;;;35.70;16.57;;;4.20;99.90;;;;;;5036132;28;20559;-81
2022/01/12 08:26:46;;;;;;;40.27;18.13;;;4.20;99.90;;;;;;5036314;28;20845;-83
2022/01/12 08:29:14;;;;;;;41.07;20.87;;;4.20;99.90;;;;;;5035780;28;20179;-81
2022/01/12 08:31:41;;;;;;;37.50;18.00;;;4.30;99.90;;;;;;5016597;28;20458;-81
2022/01/12 08:34:08;;;;;;;38.10;15.60;;;4.30;99.90;;;;;;5016191;28;20402;-83
2022/01/12 08:36:33;;;;;;;39.57;18.10;;;4.30;99.90;;;;;;5015899;28;20406;-82
2022/01/12 08:39:03;;;;;;;35.67;15.97;;;4.30;99.90;;;;;;5015577;28;20413;-82
2022/01/12 08:41:28;;;;;;;38.83;17.73;;;4.40;99.90;;;;;;5015868;28;20171;-82
2022/01/12 08:43:54;;;;;;;42.63;17.27;;;4.40;99.90;;;;;;5015552;28;20473;-82
2022/01/12 08:46:22;;;;;;;33.97;16.30;;;4.40;99.90;;;;;;5016302;28;20174;-81
2022/01/12 08:48:48;;;;;;;33.90;17.17;;;4.40;99.90;;;;;;5015951;28;20171;-86
2022/01/12 08:51:16;;;;;;;39.10;17.10;;;4.40;99.90;;;;;;4998271;28;20428;-82
2022/01/12 08:53:41;;;;;;;42.70;18.27;;;4.40;99.90;;;;;;5015657;28;20222;-82
2022/01/12 08:56:07;;;;;;;36.97;16.77;;;4.40;99.90;;;;;;5015323;28;20411;-81
2022/01/12 08:58:33;;;;;;;41.60;16.40;;;4.50;99.90;;;;;;4997395;28;20178;-84
2022/01/12 09:01:03;;;;;;;27.90;14.63;;;4.50;99.90;;;;;;5014937;28;20407;-82
2022/01/12 09:03:29;;;;;;;32.23;15.57;;;4.50;99.90;;;;;;4998400;28;20472;-81
2022/01/12 09:05:55;;;;;;;37.50;16.13;;;4.60;99.90;;;;;;4998093;28;20442;-82
2022/01/12 09:08:20;;;;;;;39.97;18.07;;;4.60;99.90;;;;;;5015611;28;20456;-81
2022/01/12 09:10:46;;;;;;;40.47;15.10;;;4.60;99.90;;;;;;5015740;28;20278;-82
2022/01/12 09:13:12;;;;;;;35.87;15.87;;;4.70;99.90;;;;;;5015249;28;20175;-82
2022/01/12 09:15:37;;;;;;;33.83;15.00;;;4.70;99.90;;;;;;5015419;28;20631;-81
2022/01/12 09:18:03;;;;;;;34.73;15.53;;;4.80;99.90;;;;;;5015461;28;20534;-83
2022/01/12 09:20:28;;;;;;;34.27;14.50;;;4.70;99.90;;;;;;5015406;28;20183;-85
2022/01/12 09:22:57;;;;;;;36.27;15.80;;;4.80;99.90;;;;;;5022282;28;20622;-91
2022/01/12 09:25:22;;;;;;;30.57;14.13;;;4.80;99.90;;;;;;5035353;28;20171;-90
2022/01/12 09:27:48;;;;;;;36.80;17.80;;;4.80;99.90;;;;;;5001721;28;20437;-91
2022/01/12 09:30:18;;;;;;;31.17;16.00;;;4.80;99.90;;;;;;5016414;28;20232;-92
2022/01/12 09:32:44;;;;;;;38.70;17.20;;;4.90;99.90;;;;;;5047541;28;20166;-91
2022/01/12 09:35:14;;;;;;;30.90;14.40;;;4.90;99.90;;;;;;5047191;28;20467;-92
2022/01/12 09:37:39;;;;;;;33.30;16.50;;;5.00;99.90;;;;;;5054848;28;20429;-91
2022/01/12 09:40:06;;;;;;;31.53;16.10;;;4.90;99.90;;;;;;5047494;28;20827;-91
2022/01/12 09:42:32;;;;;;;35.90;15.27;;;4.90;99.90;;;;;;5027506;28;20195;-90
2022/01/12 09:44:58;;;;;;;39.30;16.87;;;4.90;99.90;;;;;;5048361;28;20491;-91
2022/01/12 09:47:27;;;;;;;35.00;14.87;;;4.90;99.90;;;;;;5045857;28;20416;-92
2022/01/12 09:49:52;;;;;;;34.47;16.40;;;4.80;99.90;;;;;;5059636;28;20420;-92
2022/01/12 09:52:18;;;;;;;32.13;15.80;;;4.80;99.90;;;;;;5055740;28;20409;-92
2022/01/12 09:54:46;;;;;;;34.07;14.90;;;4.70;99.90;;;;;;5063279;28;20199;-93
2022/01/12 09:57:17;;;;;;;28.60;15.53;;;4.70;99.90;;;;;;5064286;28;20170;-91
2022/01/12 09:59:42;;;;;;;33.13;15.53;;;4.70;99.90;;;;;;5067470;28;20433;-90
2022/01/12 10:02:19;;;;;;;26.97;13.40;;;4.70;99.90;;;;;;5056149;28;20606;-90
2022/01/12 10:04:45;;;;;;;26.27;13.23;;;4.80;99.90;;;;;;5066997;28;20181;-90
2022/01/12 10:07:13;;;;;;;31.77;15.60;;;4.80;99.90;;;;;;5049891;28;20423;-93
2022/01/12 10:09:44;;;;;;;33.23;17.87;;;4.80;99.90;;;;;;5048375;28;20178;-91
2022/01/12 10:12:12;;;;;;;33.10;15.47;;;4.90;99.90;;;;;;5057719;28;20439;-92
2022/01/12 10:14:50;;;;;;;37.50;16.33;;;5.00;99.90;;;;;;5057633;28;20411;-93
2022/01/12 10:17:18;;;;;;;30.10;16.40;;;5.00;99.90;;;;;;5058229;28;20427;-91
2022/01/12 10:19:44;;;;;;;33.00;17.03;;;4.90;99.90;;;;;;5057706;28;20415;-90
2022/01/12 10:22:14;;;;;;;34.43;17.00;;;5.00;99.90;;;;;;5074867;28;20514;-89
2022/01/12 10:24:42;;;;;;;31.47;15.73;;;4.90;99.90;;;;;;5075183;28;20264;-91
2022/01/12 10:27:19;;;;;;;44.40;19.03;;;4.90;99.90;;;;;;5074650;28;20414;-91
2022/01/12 10:29:54;;;;;;;27.90;14.10;;;4.90;99.90;;;;;;5059552;28;20480;-90
2022/01/12 10:32:19;;;;;;;38.97;16.33;;;4.90;99.90;;;;;;5012589;28;20425;-89
2022/01/12 10:34:48;;;;;;;29.17;13.07;;;4.90;99.90;;;;;;5036309;28;20479;-90
2022/01/12 10:37:16;;;;;;;33.90;16.50;;;4.90;99.90;;;;;;5034226;28;20192;-90
2022/01/12 10:39:44;;;;;;;30.70;14.77;;;4.90;99.90;;;;;;5033198;28;20840;-90
2022/01/12 10:42:13;;;;;;;37.50;17.37;;;4.90;99.90;;;;;;5047149;28;20769;-90
2022/01/12 10:44:40;;;;;;;25.33;16.40;;;4.90;99.90;;;;;;5041601;28;20562;-89
2022/01/12 10:47:10;;;;;;;25.90;14.50;;;4.90;99.90;;;;;;5025832;28;21060;-90
2022/01/12 10:49:41;;;;;;;32.77;15.70;;;4.90;99.90;;;;;;5018876;28;20439;-90
2022/01/12 10:52:09;;;;;;;31.87;15.90;;;4.90;99.90;;;;;;5032284;28;20429;-89
2022/01/12 10:54:50;;;;;;;28.40;13.87;;;4.90;99.90;;;;;;5031628;28;20435;-89
2022/01/12 10:57:25;;;;;;;30.00;15.20;;;4.80;99.90;;;;;;5016335;28;20516;-89
2022/01/12 11:00:18;;;;;;;28.67;16.30;;;4.90;99.90;;;;;;5032353;28;20416;-91
2022/01/12 11:02:47;;;;;;;29.20;15.00;;;4.90;99.90;;;;;;5020385;28;20458;-91
2022/01/12 11:05:12;;;;;;;26.40;11.73;;;4.90;99.90;;;;;;5025101;28;20473;-93
2022/01/12 11:07:38;;;;;;;32.73;15.30;;;4.90;99.90;;;;;;5035514;28;20422;-91
2022/01/12 11:10:09;;;;;;;29.77;12.93;;;4.90;99.90;;;;;;5027848;28;20177;-89
2022/01/12 11:12:35;;;;;;;24.47;12.80;;;4.90;99.90;;;;;;5039917;28;20648;-93
2022/01/12 11:15:04;;;;;;;25.20;13.60;;;5.00;99.90;;;;;;5036167;28;20421;-91
2022/01/12 11:17:29;;;;;;;21.30;11.63;;;5.00;99.90;;;;;;5034187;28;20793;-90
2022/01/12 11:20:09;;;;;;;24.17;12.87;;;5.00;99.90;;;;;;5032386;28;20428;-89
2022/01/12 11:22:53;;;;;;;20.70;12.63;;;5.10;99.90;;;;;;5035177;28;20224;-89
2022/01/12 11:25:23;;;;;;;17.50;10.17;;;5.00;99.90;;;;;;5016168;28;20448;-86
2022/01/12 11:28:02;;;;;;;26.13;11.40;;;5.10;99.90;;;;;;5033262;28;20421;-89
2022/01/12 11:30:28;;;;;;;30.23;12.60;;;5.10;99.90;;;;;;5033933;28;20486;-89
2022/01/12 11:32:59;;;;;;;21.87;10.87;;;5.10;99.90;;;;;;5016585;28;20424;-90
2022/01/12 11:35:30;;;;;;;20.03;11.77;;;5.10;99.90;;;;;;5016382;28;20178;-91
2022/01/12 11:37:59;;;;;;;19.80;9.73;;;5.20;99.90;;;;;;5027625;28;20445;-87
2022/01/12 11:40:42;;;;;;;21.00;10.30;;;5.20;99.90;;;;;;5034066;28;20498;-91
2022/01/12 11:43:29;;;;;;;20.10;10.70;;;5.40;99.90;;;;;;5016190;28;20453;-92
2022/01/12 11:46:14;;;;;;;28.83;10.40;;;5.50;99.90;;;;;;5034862;28;20433;-92
2022/01/12 11:48:46;;;;;;;17.57;7.90;;;5.70;99.90;;;;;;5018078;28;20417;-93
2022/01/12 11:51:13;;;;;;;24.30;10.63;;;5.70;99.90;;;;;;5034359;28;20417;-91
2022/01/12 11:53:54;;;;;;;20.87;10.17;;;5.70;99.90;;;;;;5017812;28;20438;-94
2022/01/12 11:56:26;;;;;;;20.73;8.70;;;5.80;99.90;;;;;;5017409;28;20471;-92
2022/01/12 11:58:59;;;;;;;16.17;9.17;;;5.90;99.90;;;;;;5016295;28;20463;-90
2022/01/12 12:01:48;;;;;;;27.57;9.20;;;5.90;99.90;;;;;;5035974;28;20408;-90
2022/01/12 12:04:32;;;;;;;24.40;9.97;;;5.90;99.90;;;;;;5027949;28;20500;-91
2022/01/12 12:07:14;;;;;;;19.67;8.27;;;6.20;99.90;;;;;;5000552;28;20418;-93
2022/01/12 12:09:44;;;;;;;26.03;9.07;;;7.00;99.90;;;;;;4997324;28;20805;-91
2022/01/12 12:12:19;;;;;;;17.83;9.47;;;7.50;99.90;;;;;;4997980;28;20480;-93
2022/01/12 12:14:50;;;;;;;19.17;7.37;;;7.10;99.90;;;;;;4997475;28;20420;-92
2022/01/12 12:17:19;;;;;;;18.37;8.17;;;6.50;99.90;;;;;;4998833;28;20412;-91
2022/01/12 12:19:47;;;;;;;15.47;7.90;;;6.20;99.90;;;;;;4996279;28;20452;-91
2022/01/12 12:22:21;;;;;;;20.43;6.73;;;6.10;99.90;;;;;;4995931;28;20464;-90
2022/01/12 12:24:55;;;;;;;21.43;8.23;;;6.00;99.90;;;;;;4997198;28;20530;-92
2022/01/12 12:27:23;;;;;;;15.23;7.20;;;6.00;99.90;;;;;;5000308;28;20430;-91
2022/01/12 12:29:49;;;;;;;14.63;7.37;;;6.00;99.90;;;;;;5019754;28;20993;-93
2022/01/12 12:32:22;;;;;;;15.43;6.37;;;6.10;99.90;;;;;;5038083;28;20438;-90
2022/01/12 12:35:00;;;;;;;12.20;6.90;;;6.20;99.90;;;;;;5037348;28;20430;-88
2022/01/12 12:37:34;;;;;;;16.87;6.63;;;6.20;99.90;;;;;;5039989;28;20425;-90
2022/01/12 12:40:21;;;;;;;16.40;7.17;;;6.30;99.90;;;;;;5040150;28;20454;-90
2022/01/12 12:43:06;;;;;;;21.63;9.33;;;6.40;99.90;;;;;;5040234;28;20569;-91
2022/01/12 12:45:54;;;;;;;17.33;7.63;;;6.40;99.90;;;;;;5039852;28;20430;-90
2022/01/12 12:48:22;;;;;;;16.47;8.30;;;6.30;99.90;;;;;;5039600;28;20949;-91
2022/01/12 12:51:00;;;;;;;17.17;6.67;;;6.20;99.90;;;;;;5039701;28;20421;-90
2022/01/12 12:53:28;;;;;;;22.90;8.30;;;6.10;99.90;;;;;;5040721;28;20431;-88
2022/01/12 12:55:53;;;;;;;15.93;7.30;;;6.10;99.90;;;;;;5056843;28;20424;-89
2022/01/12 12:58:19;;;;;;;20.50;6.73;;;6.20;99.90;;;;;;5056044;28;20410;-87
2022/01/12 13:00:44;;;;;;;20.00;9.23;;;6.10;99.90;;;;;;5038284;28;20236;-92
2022/01/12 13:03:12;;;;;;;18.90;6.90;;;6.20;99.90;;;;;;5001043;28;20212;-93
2022/01/12 13:05:42;;;;;;;17.60;7.67;;;6.20;99.90;;;;;;5021774;28;20231;-93
2022/01/12 13:08:08;;;;;;;19.70;7.27;;;6.20;99.90;;;;;;5002238;28;20424;-93
2022/01/12 13:10:38;;;;;;;18.70;8.40;;;6.10;99.90;;;;;;5004237;28;20518;-94
2022/01/12 13:13:09;;;;;;;12.90;6.27;;;6.10;99.90;;;;;;5009537;28;20922;-95
2022/01/12 13:15:36;;;;;;;18.27;9.40;;;6.10;99.90;;;;;;5004005;28;20849;-94
2022/01/12 13:18:17;;;;;;;12.90;6.60;;;6.20;99.90;;;;;;5001117;28;20435;-93
2022/01/12 13:23:36;;;;;;;18.70;8.10;;;6.20;99.90;;;;;;5017240;28;20837;-91
2022/01/12 13:26:04;;;;;;;13.67;6.10;;;6.20;99.90;;;;;;5000116;28;20427;-92
2022/01/12 13:28:29;;;;;;;17.53;6.70;;;6.20;99.90;;;;;;4998538;28;20413;-91
2022/01/12 13:31:00;;;;;;;13.03;5.90;;;6.20;99.90;;;;;;5008603;28;20541;-92
2022/01/12 13:33:33;;;;;;;14.47;6.73;;;6.30;99.90;;;;;;5008618;28;20183;-93
2022/01/12 13:36:14;;;;;;;14.23;6.30;;;6.40;99.90;;;;;;5015179;28;20435;-92
2022/01/12 13:38:40;;;;;;;15.30;5.10;;;6.40;99.90;;;;;;5015132;28;20467;-92
2022/01/12 13:41:12;;;;;;;10.50;4.60;;;6.50;99.90;;;;;;5015040;28;20424;-92
2022/01/12 13:43:40;;;;;;;21.57;6.57;;;6.50;99.90;;;;;;5014396;28;20486;-90
2022/01/12 13:46:12;;;;;;;22.87;6.57;;;6.60;99.90;;;;;;5016166;28;20478;-93
2022/01/12 13:48:43;;;;;;;15.23;5.40;;;6.60;99.90;;;;;;5016106;28;20832;-92
2022/01/12 13:51:09;;;;;;;10.67;5.20;;;6.70;99.90;;;;;;5014840;28;20412;-91
2022/01/12 13:53:39;;;;;;;17.97;6.90;;;6.70;99.90;;;;;;5014272;28;20426;-89
2022/01/12 13:56:07;;;;;;;12.43;5.33;;;6.70;99.90;;;;;;5013438;28;20628;-87
2022/01/12 13:58:35;;;;;;;14.80;5.40;;;6.50;99.90;;;;;;5015554;28;20756;-90
2022/01/12 14:01:11;;;;;;;21.37;6.63;;;6.40;99.90;;;;;;5018690;28;20434;-90
2022/01/12 14:03:50;;;;;;;12.50;5.50;;;6.50;99.90;;;;;;5014423;28;20467;-91
2022/01/12 14:06:17;;;;;;;12.67;4.53;;;6.40;99.90;;;;;;5014846;28;20415;-94
2022/01/12 14:08:56;;;;;;;12.60;6.07;;;6.40;99.90;;;;;;5014591;28;20422;-93
2022/01/12 14:11:32;;;;;;;11.00;5.23;;;6.20;99.90;;;;;;5014971;28;20424;-93
2022/01/12 14:14:00;;;;;;;12.03;5.00;;;6.20;99.90;;;;;;5016657;28;20818;-91